sensor_id;sensor_type;location;lat;lon;timestamp;pressure;altitude;pressure_sealevel;temperature;humidity
9905;BME280;4991;43.566;27.820;2023-05-14T00:01:47;99564.09;;;7.70;100.00
9905;BME280;4991;43.566;27.820;2023-05-14T00:04:13;99555.13;;;7.69;100.00
9905;BME280;4991;43.566;27.820;2023-05-14T00:06:38;99562.19;;;7.65;100.00
9905;BME280;4991;43.566;27.820;2023-05-14T00:09:04;99566.00;;;7.74;100.00
9905;BME280;4991;43.566;27.820;2023-05-14T00:11:30;99569.28;;;7.81;100.00
9905;BME280;4991;43.566;27.820;2023-05-14T00:13:55;99565.50;;;7.82;100.00
9905;BME280;4991;43.566;27.820;2023-05-14T00:16:21;99561.66;;;7.73;100.00
9905;BME280;4991;43.566;27.820;2023-05-14T00:18:47;99574.06;;;7.59;100.00
9905;BME280;4991;43.566;27.820;2023-05-14T00:21:12;99579.00;;;7.62;100.00
9905;BME280;4991;43.566;27.820;2023-05-14T00:23:38;99578.75;;;7.69;100.00
9905;BME280;4991;43.566;27.820;2023-05-14T00:26:04;99581.72;;;7.62;100.00
9905;BME280;4991;43.566;27.820;2023-05-14T00:28:29;99578.72;;;7.59;100.00
9905;BME280;4991;43.566;27.820;2023-05-14T00:30:55;99582.69;;;7.46;100.00
9905;BME280;4991;43.566;27.820;2023-05-14T00:33:21;99575.94;;;7.44;100.00
9905;BME280;4991;43.566;27.820;2023-05-14T00:35:47;99585.41;;;7.46;100.00
9905;BME280;4991;43.566;27.820;2023-05-14T00:38:13;99579.69;;;7.43;100.00
9905;BME280;4991;43.566;27.820;2023-05-14T00:40:42;99578.34;;;7.40;100.00
9905;BME280;4991;43.566;27.820;2023-05-14T00:43:10;99591.94;;;7.50;100.00
9905;BME280;4991;43.566;27.820;2023-05-14T00:45:37;99591.63;;;7.42;100.00
9905;BME280;4991;43.566;27.820;2023-05-14T00:48:03;99593.00;;;7.44;100.00
9905;BME280;4991;43.566;27.820;2023-05-14T00:50:29;99596.50;;;7.45;100.00
9905;BME280;4991;43.566;27.820;2023-05-14T00:52:55;99596.81;;;7.48;100.00
9905;BME280;4991;43.566;27.820;2023-05-14T00:55:21;99590.81;;;7.41;100.00
9905;BME280;4991;43.566;27.820;2023-05-14T00:57:47;99589.75;;;7.42;100.00
9905;BME280;4991;43.566;27.820;2023-05-14T01:00:13;99590.50;;;7.38;100.00
9905;BME280;4991;43.566;27.820;2023-05-14T01:02:39;99594.88;;;7.39;100.00
9905;BME280;4991;43.566;27.820;2023-05-14T01:05:05;99592.94;;;7.29;100.00
9905;BME280;4991;43.566;27.820;2023-05-14T01:15:36;99588.25;;;7.20;100.00
9905;BME280;4991;43.566;27.820;2023-05-14T01:18:08;99587.97;;;7.16;100.00
9905;BME280;4991;43.566;27.820;2023-05-14T01:20:34;99579.63;;;7.23;100.00
9905;BME280;4991;43.566;27.820;2023-05-14T01:23:01;99573.91;;;7.19;100.00
9905;BME280;4991;43.566;27.820;2023-05-14T01:25:28;99573.88;;;7.14;100.00
9905;BME280;4991;43.566;27.820;2023-05-14T01:28:10;99581.19;;;7.14;100.00
9905;BME280;4991;43.566;27.820;2023-05-14T01:33:18;99577.94;;;7.17;100.00
9905;BME280;4991;43.566;27.820;2023-05-14T01:35:46;99583.97;;;7.24;100.00
9905;BME280;4991;43.566;27.820;2023-05-14T01:38:14;99579.31;;;7.14;100.00
9905;BME280;4991;43.566;27.820;2023-05-14T01:40:43;99581.75;;;7.16;100.00
9905;BME280;4991;43.566;27.820;2023-05-14T01:43:09;99581.25;;;7.24;100.00
9905;BME280;4991;43.566;27.820;2023-05-14T01:45:36;99579.63;;;7.23;100.00
9905;BME280;4991;43.566;27.820;2023-05-14T01:48:03;99573.09;;;7.19;100.00
9905;BME280;4991;43.566;27.820;2023-05-14T01:50:28;99576.25;;;7.01;100.00
9905;BME280;4991;43.566;27.820;2023-05-14T01:52:54;99567.03;;;7.02;100.00
9905;BME280;4991;43.566;27.820;2023-05-14T01:55:21;99576.50;;;6.99;100.00
9905;BME280;4991;43.566;27.820;2023-05-14T01:57:49;99567.03;;;7.02;100.00
9905;BME280;4991;43.566;27.820;2023-05-14T02:00:15;99573.78;;;6.99;100.00
9905;BME280;4991;43.566;27.820;2023-05-14T02:02:41;99568.63;;;6.93;100.00
9905;BME280;4991;43.566;27.820;2023-05-14T02:05:07;99564.84;;;6.99;100.00
9905;BME280;4991;43.566;27.820;2023-05-14T02:07:33;99570.84;;;7.06;100.00
9905;BME280;4991;43.566;27.820;2023-05-14T02:09:58;99565.41;;;7.01;100.00
9905;BME280;4991;43.566;27.820;2023-05-14T02:12:24;99575.69;;;6.99;100.00
9905;BME280;4991;43.566;27.820;2023-05-14T02:14:50;99577.09;;;7.06;100.00
9905;BME280;4991;43.566;27.820;2023-05-14T02:17:16;99570.03;;;7.05;100.00
9905;BME280;4991;43.566;27.820;2023-05-14T02:19:43;99564.88;;;7.04;100.00
9905;BME280;4991;43.566;27.820;2023-05-14T02:22:09;99561.63;;;7.02;100.00
9905;BME280;4991;43.566;27.820;2023-05-14T02:24:34;99568.69;;;7.03;100.00
9905;BME280;4991;43.566;27.820;2023-05-14T02:27:00;99580.63;;;7.12;100.00
9905;BME280;4991;43.566;27.820;2023-05-14T02:29:26;99582.22;;;7.03;100.00
9905;BME280;4991;43.566;27.820;2023-05-14T02:31:52;99566.69;;;6.93;100.00
9905;BME280;4991;43.566;27.820;2023-05-14T02:34:17;99573.75;;;6.94;100.00
9905;BME280;4991;43.566;27.820;2023-05-14T02:36:43;99578.66;;;6.97;100.00
9905;BME280;4991;43.566;27.820;2023-05-14T02:39:09;99580.19;;;6.88;100.00
9905;BME280;4991;43.566;27.820;2023-05-14T02:41:34;99579.75;;;6.96;100.00
9905;BME280;4991;43.566;27.820;2023-05-14T02:44:00;99584.63;;;6.99;100.00
9905;BME280;4991;43.566;27.820;2023-05-14T02:46:25;99576.72;;;6.93;100.00
9905;BME280;4991;43.566;27.820;2023-05-14T02:48:51;99587.00;;;6.91;100.00
9905;BME280;4991;43.566;27.820;2023-05-14T02:51:19;99588.16;;;7.05;100.00
9905;BME280;4991;43.566;27.820;2023-05-14T02:53:45;99585.72;;;7.03;100.00
9905;BME280;4991;43.566;27.820;2023-05-14T02:56:11;99592.97;;;6.93;100.00
9905;BME280;4991;43.566;27.820;2023-05-14T02:58:36;99590.00;;;6.94;100.00
9905;BME280;4991;43.566;27.820;2023-05-14T03:01:02;99595.91;;;6.86;100.00
9905;BME280;4991;43.566;27.820;2023-05-14T03:03:29;99607.25;;;6.83;100.00
9905;BME280;4991;43.566;27.820;2023-05-14T03:05:55;99600.25;;;6.87;100.00
9905;BME280;4991;43.566;27.820;2023-05-14T03:08:20;99603.50;;;6.89;100.00
9905;BME280;4991;43.566;27.820;2023-05-14T03:10:46;99605.44;;;6.94;100.00
9905;BME280;4991;43.566;27.820;2023-05-14T03:13:11;99601.66;;;7.00;100.00
9905;BME280;4991;43.566;27.820;2023-05-14T03:15:37;99602.00;;;7.08;100.00
9905;BME280;4991;43.566;27.820;2023-05-14T03:18:03;99607.72;;;7.12;100.00
9905;BME280;4991;43.566;27.820;2023-05-14T03:20:28;99594.50;;;7.20;100.00
9905;BME280;4991;43.566;27.820;2023-05-14T03:22:54;99600.69;;;7.11;100.00
9905;BME280;4991;43.566;27.820;2023-05-14T03:25:20;99592.31;;;7.17;100.00
9905;BME280;4991;43.566;27.820;2023-05-14T03:27:46;99594.69;;;7.09;100.00
9905;BME280;4991;43.566;27.820;2023-05-14T03:30:12;99586.00;;;7.07;100.00
9905;BME280;4991;43.566;27.820;2023-05-14T03:32:37;99593.19;;;7.23;100.00
9905;BME280;4991;43.566;27.820;2023-05-14T03:35:03;99587.78;;;7.28;100.00
9905;BME280;4991;43.566;27.820;2023-05-14T03:37:29;99596.72;;;7.33;100.00
9905;BME280;4991;43.566;27.820;2023-05-14T03:39:55;99598.91;;;7.36;100.00
9905;BME280;4991;43.566;27.820;2023-05-14T03:42:20;99603.09;;;7.59;100.00
9905;BME280;4991;43.566;27.820;2023-05-14T03:44:46;99604.50;;;7.76;100.00
9905;BME280;4991;43.566;27.820;2023-05-14T03:47:11;99600.53;;;7.94;100.00
9905;BME280;4991;43.566;27.820;2023-05-14T03:49:37;99592.41;;;7.99;100.00
9905;BME280;4991;43.566;27.820;2023-05-14T03:52:03;99598.72;;;8.30;100.00
9905;BME280;4991;43.566;27.820;2023-05-14T03:54:28;99605.25;;;8.49;100.00
9905;BME280;4991;43.566;27.820;2023-05-14T03:56:54;99607.16;;;8.78;100.00
9905;BME280;4991;43.566;27.820;2023-05-14T03:59:19;99614.75;;;9.01;100.00
9905;BME280;4991;43.566;27.820;2023-05-14T04:01:45;99616.34;;;9.18;100.00
9905;BME280;4991;43.566;27.820;2023-05-14T04:04:11;99616.59;;;9.31;100.00
9905;BME280;4991;43.566;27.820;2023-05-14T04:06:36;99627.19;;;9.28;100.00
9905;BME280;4991;43.566;27.820;2023-05-14T04:09:02;99632.34;;;9.34;100.00
9905;BME280;4991;43.566;27.820;2023-05-14T04:11:28;99632.28;;;9.64;100.00
9905;BME280;4991;43.566;27.820;2023-05-14T04:13:54;99627.09;;;9.68;100.00
9905;BME280;4991;43.566;27.820;2023-05-14T04:16:19;99632.47;;;9.83;100.00
9905;BME280;4991;43.566;27.820;2023-05-14T04:18:45;99634.00;;;10.04;100.00
9905;BME280;4991;43.566;27.820;2023-05-14T04:21:11;99637.19;;;10.26;100.00
9905;BME280;4991;43.566;27.820;2023-05-14T04:23:36;99645.00;;;10.43;100.00
9905;BME280;4991;43.566;27.820;2023-05-14T04:26:02;99636.19;;;10.56;100.00
9905;BME280;4991;43.566;27.820;2023-05-14T04:28:29;99629.44;;;10.43;100.00
9905;BME280;4991;43.566;27.820;2023-05-14T04:30:55;99622.09;;;10.43;100.00
9905;BME280;4991;43.566;27.820;2023-05-14T04:33:20;99625.94;;;10.43;100.00
9905;BME280;4991;43.566;27.820;2023-05-14T04:35:46;99629.69;;;10.47;100.00
9905;BME280;4991;43.566;27.820;2023-05-14T04:38:11;99626.97;;;10.47;100.00
9905;BME280;4991;43.566;27.820;2023-05-14T04:40:38;99623.84;;;10.63;100.00
9905;BME280;4991;43.566;27.820;2023-05-14T04:43:04;99624.69;;;10.64;100.00
9905;BME280;4991;43.566;27.820;2023-05-14T04:45:31;99634.09;;;10.76;100.00
9905;BME280;4991;43.566;27.820;2023-05-14T04:47:56;99637.31;;;10.83;100.00
9905;BME280;4991;43.566;27.820;2023-05-14T04:50:22;99637.19;;;10.98;100.00
9905;BME280;4991;43.566;27.820;2023-05-14T04:52:48;99628.59;;;11.15;100.00
9905;BME280;4991;43.566;27.820;2023-05-14T04:55:13;99629.19;;;11.12;100.00
9905;BME280;4991;43.566;27.820;2023-05-14T04:57:39;99633.56;;;11.36;100.00
9905;BME280;4991;43.566;27.820;2023-05-14T05:00:05;99629.06;;;11.50;100.00
9905;BME280;4991;43.566;27.820;2023-05-14T05:02:34;99627.06;;;11.56;100.00
9905;BME280;4991;43.566;27.820;2023-05-14T05:05:01;99622.19;;;11.82;100.00
9905;BME280;4991;43.566;27.820;2023-05-14T05:07:26;99613.28;;;11.95;100.00
9905;BME280;4991;43.566;27.820;2023-05-14T05:09:52;99609.06;;;12.02;100.00
9905;BME280;4991;43.566;27.820;2023-05-14T05:12:17;99598.22;;;12.16;100.00
9905;BME280;4991;43.566;27.820;2023-05-14T05:14:43;99604.31;;;12.31;100.00
9905;BME280;4991;43.566;27.820;2023-05-14T05:17:09;99597.56;;;12.42;100.00
9905;BME280;4991;43.566;27.820;2023-05-14T05:19:34;99588.78;;;12.45;100.00
9905;BME280;4991;43.566;27.820;2023-05-14T05:22:00;99597.19;;;12.49;100.00
9905;BME280;4991;43.566;27.820;2023-05-14T05:24:26;99600.06;;;12.57;100.00
9905;BME280;4991;43.566;27.820;2023-05-14T05:26:51;99604.63;;;12.62;100.00
9905;BME280;4991;43.566;27.820;2023-05-14T05:29:18;99603.47;;;12.68;100.00
9905;BME280;4991;43.566;27.820;2023-05-14T05:31:44;99605.91;;;12.69;100.00
9905;BME280;4991;43.566;27.820;2023-05-14T05:34:09;99604.09;;;12.78;100.00
9905;BME280;4991;43.566;27.820;2023-05-14T05:36:35;99605.22;;;12.77;100.00
9905;BME280;4991;43.566;27.820;2023-05-14T05:39:00;99599.38;;;12.84;100.00
9905;BME280;4991;43.566;27.820;2023-05-14T05:41:26;99606.97;;;12.87;100.00
9905;BME280;4991;43.566;27.820;2023-05-14T05:43:52;99607.09;;;12.95;100.00
9905;BME280;4991;43.566;27.820;2023-05-14T05:46:18;99603.53;;;13.14;100.00
9905;BME280;4991;43.566;27.820;2023-05-14T05:48:43;99592.28;;;13.15;100.00
9905;BME280;4991;43.566;27.820;2023-05-14T05:51:10;99583.69;;;13.22;100.00
9905;BME280;4991;43.566;27.820;2023-05-14T05:53:36;99582.81;;;13.40;100.00
9905;BME280;4991;43.566;27.820;2023-05-14T05:56:02;99584.94;;;13.56;100.00
9905;BME280;4991;43.566;27.820;2023-05-14T05:58:28;99583.72;;;13.62;100.00
9905;BME280;4991;43.566;27.820;2023-05-14T06:00:53;99589.00;;;13.72;100.00
9905;BME280;4991;43.566;27.820;2023-05-14T06:03:19;99591.63;;;13.77;100.00
9905;BME280;4991;43.566;27.820;2023-05-14T06:05:46;99591.41;;;13.87;100.00
9905;BME280;4991;43.566;27.820;2023-05-14T06:08:11;99592.31;;;13.96;100.00
9905;BME280;4991;43.566;27.820;2023-05-14T06:10:37;99583.53;;;14.21;100.00
9905;BME280;4991;43.566;27.820;2023-05-14T06:13:03;99594.28;;;14.18;100.00
9905;BME280;4991;43.566;27.820;2023-05-14T06:15:28;99583.75;;;14.25;100.00
9905;BME280;4991;43.566;27.820;2023-05-14T06:17:54;99584.25;;;14.41;100.00
9905;BME280;4991;43.566;27.820;2023-05-14T06:20:20;99594.53;;;14.57;100.00
9905;BME280;4991;43.566;27.820;2023-05-14T06:22:45;99591.66;;;14.62;100.00
9905;BME280;4991;43.566;27.820;2023-05-14T06:25:11;99597.03;;;14.67;100.00
9905;BME280;4991;43.566;27.820;2023-05-14T06:27:36;99597.50;;;14.69;100.00
9905;BME280;4991;43.566;27.820;2023-05-14T06:30:02;99600.69;;;14.85;100.00
9905;BME280;4991;43.566;27.820;2023-05-14T06:32:28;99598.03;;;14.93;100.00
9905;BME280;4991;43.566;27.820;2023-05-14T06:34:54;99602.56;;;14.98;100.00
9905;BME280;4991;43.566;27.820;2023-05-14T06:37:19;99605.69;;;15.05;100.00
9905;BME280;4991;43.566;27.820;2023-05-14T06:39:45;99614.75;;;15.14;100.00
9905;BME280;4991;43.566;27.820;2023-05-14T06:42:15;99618.69;;;15.21;100.00
9905;BME280;4991;43.566;27.820;2023-05-14T06:44:41;99622.78;;;15.32;100.00
9905;BME280;4991;43.566;27.820;2023-05-14T06:47:06;99629.78;;;15.38;100.00
9905;BME280;4991;43.566;27.820;2023-05-14T06:49:33;99620.47;;;15.48;100.00
9905;BME280;4991;43.566;27.820;2023-05-14T06:51:59;99624.09;;;15.66;100.00
9905;BME280;4991;43.566;27.820;2023-05-14T06:54:25;99636.75;;;15.75;100.00
9905;BME280;4991;43.566;27.820;2023-05-14T06:56:51;99629.66;;;15.83;100.00
9905;BME280;4991;43.566;27.820;2023-05-14T06:59:16;99631.13;;;15.89;100.00
9905;BME280;4991;43.566;27.820;2023-05-14T07:01:42;99625.81;;;15.92;100.00
9905;BME280;4991;43.566;27.820;2023-05-14T07:04:07;99626.16;;;15.99;100.00
9905;BME280;4991;43.566;27.820;2023-05-14T07:06:34;99623.63;;;16.11;100.00
9905;BME280;4991;43.566;27.820;2023-05-14T07:09:00;99625.91;;;16.18;100.00
9905;BME280;4991;43.566;27.820;2023-05-14T07:11:26;99627.19;;;16.20;100.00
9905;BME280;4991;43.566;27.820;2023-05-14T07:13:51;99622.19;;;16.31;100.00
9905;BME280;4991;43.566;27.820;2023-05-14T07:16:17;99621.88;;;16.41;100.00
9905;BME280;4991;43.566;27.820;2023-05-14T07:18:43;99623.72;;;16.54;100.00
9905;BME280;4991;43.566;27.820;2023-05-14T07:21:10;99629.53;;;16.61;100.00
9905;BME280;4991;43.566;27.820;2023-05-14T07:23:35;99624.19;;;16.73;100.00
9905;BME280;4991;43.566;27.820;2023-05-14T07:26:03;99624.50;;;16.80;100.00
9905;BME280;4991;43.566;27.820;2023-05-14T07:28:29;99620.00;;;16.75;100.00
9905;BME280;4991;43.566;27.820;2023-05-14T07:30:55;99623.19;;;16.95;100.00
9905;BME280;4991;43.566;27.820;2023-05-14T07:33:21;99622.53;;;17.15;100.00
9905;BME280;4991;43.566;27.820;2023-05-14T07:35:47;99621.06;;;17.26;100.00
9905;BME280;4991;43.566;27.820;2023-05-14T07:38:12;99616.97;;;17.40;100.00
9905;BME280;4991;43.566;27.820;2023-05-14T07:40:38;99619.81;;;17.69;100.00
9905;BME280;4991;43.566;27.820;2023-05-14T07:43:04;99615.53;;;17.89;100.00
9905;BME280;4991;43.566;27.820;2023-05-14T07:45:29;99622.31;;;17.91;100.00
9905;BME280;4991;43.566;27.820;2023-05-14T07:47:55;99619.16;;;18.01;100.00
9905;BME280;4991;43.566;27.820;2023-05-14T07:50:21;99613.66;;;18.01;100.00
9905;BME280;4991;43.566;27.820;2023-05-14T07:52:47;99611.19;;;18.09;100.00
9905;BME280;4991;43.566;27.820;2023-05-14T07:55:13;99611.34;;;18.33;100.00
9905;BME280;4991;43.566;27.820;2023-05-14T07:57:38;99613.06;;;18.46;100.00
9905;BME280;4991;43.566;27.820;2023-05-14T08:00:05;99617.06;;;18.57;100.00
9905;BME280;4991;43.566;27.820;2023-05-14T08:02:33;99621.22;;;18.63;100.00
9905;BME280;4991;43.566;27.820;2023-05-14T08:04:59;99617.56;;;18.91;99.06
9905;BME280;4991;43.566;27.820;2023-05-14T08:07:24;99616.34;;;19.01;98.22
9905;BME280;4991;43.566;27.820;2023-05-14T08:09:52;99624.91;;;19.41;98.01
9905;BME280;4991;43.566;27.820;2023-05-14T08:12:17;99623.88;;;19.45;95.26
9905;BME280;4991;43.566;27.820;2023-05-14T08:14:43;99616.47;;;19.37;91.48
9905;BME280;4991;43.566;27.820;2023-05-14T08:17:08;99627.38;;;19.21;89.58
9905;BME280;4991;43.566;27.820;2023-05-14T08:19:34;99629.78;;;19.23;91.18
9905;BME280;4991;43.566;27.820;2023-05-14T08:22:00;99631.53;;;19.72;90.06
9905;BME280;4991;43.566;27.820;2023-05-14T08:24:29;99626.09;;;19.64;84.43
9905;BME280;4991;43.566;27.820;2023-05-14T08:26:55;99627.38;;;19.90;81.70
9905;BME280;4991;43.566;27.820;2023-05-14T08:29:20;99616.91;;;19.96;82.96
9905;BME280;4991;43.566;27.820;2023-05-14T08:31:48;99613.34;;;19.95;77.65
9905;BME280;4991;43.566;27.820;2023-05-14T08:34:13;99617.38;;;20.22;75.59
9905;BME280;4991;43.566;27.820;2023-05-14T08:36:39;99615.50;;;20.38;76.57
9905;BME280;4991;43.566;27.820;2023-05-14T08:39:05;99613.41;;;20.59;76.37
9905;BME280;4991;43.566;27.820;2023-05-14T08:41:34;99616.34;;;20.78;70.05
9905;BME280;4991;43.566;27.820;2023-05-14T08:44:12;99605.13;;;20.87;67.74
9905;BME280;4991;43.566;27.820;2023-05-14T08:46:39;99594.66;;;20.80;69.29
9905;BME280;4991;43.566;27.820;2023-05-14T08:49:26;99596.06;;;20.74;72.21
9905;BME280;4991;43.566;27.820;2023-05-14T08:51:54;99589.84;;;20.65;73.25
9905;BME280;4991;43.566;27.820;2023-05-14T08:54:20;99597.53;;;20.44;72.27
9905;BME280;4991;43.566;27.820;2023-05-14T08:56:50;99593.78;;;20.92;70.67
9905;BME280;4991;43.566;27.820;2023-05-14T08:59:16;99591.00;;;21.04;72.72
9905;BME280;4991;43.566;27.820;2023-05-14T09:01:45;99589.13;;;21.08;71.87
9905;BME280;4991;43.566;27.820;2023-05-14T09:04:15;99589.03;;;21.04;73.26
9905;BME280;4991;43.566;27.820;2023-05-14T09:06:44;99593.84;;;20.80;73.64
9905;BME280;4991;43.566;27.820;2023-05-14T09:09:13;99601.50;;;20.71;72.25
9905;BME280;4991;43.566;27.820;2023-05-14T09:11:44;99596.09;;;20.90;70.61
9905;BME280;4991;43.566;27.820;2023-05-14T09:14:11;99589.22;;;21.11;71.34
9905;BME280;4991;43.566;27.820;2023-05-14T09:16:37;99595.69;;;21.31;69.46
9905;BME280;4991;43.566;27.820;2023-05-14T09:19:06;99588.38;;;20.95;69.47
9905;BME280;4991;43.566;27.820;2023-05-14T09:21:33;99592.72;;;21.08;69.83
9905;BME280;4991;43.566;27.820;2023-05-14T09:23:59;99594.47;;;20.61;68.06
9905;BME280;4991;43.566;27.820;2023-05-14T09:26:25;99597.84;;;20.54;67.86
9905;BME280;4991;43.566;27.820;2023-05-14T09:28:55;99590.00;;;20.44;66.80
9905;BME280;4991;43.566;27.820;2023-05-14T09:31:22;99590.38;;;20.43;64.98
9905;BME280;4991;43.566;27.820;2023-05-14T09:33:50;99583.50;;;20.65;65.90
9905;BME280;4991;43.566;27.820;2023-05-14T09:36:17;99592.34;;;20.82;65.19
9905;BME280;4991;43.566;27.820;2023-05-14T09:38:43;99586.19;;;21.75;63.96
9905;BME280;4991;43.566;27.820;2023-05-14T09:41:08;99576.59;;;23.11;59.90
9905;BME280;4991;43.566;27.820;2023-05-14T09:43:34;99576.56;;;25.13;57.44
9905;BME280;4991;43.566;27.820;2023-05-14T09:46:00;99580.41;;;25.75;53.29
9905;BME280;4991;43.566;27.820;2023-05-14T09:48:26;99579.72;;;27.25;47.00
9905;BME280;4991;43.566;27.820;2023-05-14T09:50:51;99569.88;;;26.62;48.13
9905;BME280;4991;43.566;27.820;2023-05-14T09:53:17;99587.38;;;26.52;44.30
9905;BME280;4991;43.566;27.820;2023-05-14T09:55:44;99580.38;;;25.71;44.74
9905;BME280;4991;43.566;27.820;2023-05-14T09:58:10;99588.44;;;24.73;46.21
9905;BME280;4991;43.566;27.820;2023-05-14T10:00:37;99583.75;;;25.51;45.75
9905;BME280;4991;43.566;27.820;2023-05-14T10:03:06;99575.81;;;25.96;45.17
9905;BME280;4991;43.566;27.820;2023-05-14T10:05:36;99579.53;;;24.64;46.61
9905;BME280;4991;43.566;27.820;2023-05-14T10:08:12;99574.22;;;25.15;47.51
9905;BME280;4991;43.566;27.820;2023-05-14T10:10:38;99576.56;;;25.46;47.89
9905;BME280;4991;43.566;27.820;2023-05-14T10:13:12;99569.28;;;25.01;46.73
9905;BME280;4991;43.566;27.820;2023-05-14T10:15:42;99584.47;;;23.96;48.42
9905;BME280;4991;43.566;27.820;2023-05-14T10:18:13;99584.78;;;23.68;49.42
9905;BME280;4991;43.566;27.820;2023-05-14T10:20:42;99577.19;;;23.01;51.59
9905;BME280;4991;43.566;27.820;2023-05-14T10:23:09;99576.81;;;22.83;53.20
9905;BME280;4991;43.566;27.820;2023-05-14T10:25:35;99566.25;;;23.12;52.62
9905;BME280;4991;43.566;27.820;2023-05-14T10:28:01;99563.06;;;22.90;52.66
9905;BME280;4991;43.566;27.820;2023-05-14T10:30:27;99569.50;;;22.75;52.92
9905;BME280;4991;43.566;27.820;2023-05-14T10:33:10;99572.81;;;23.23;52.18
9905;BME280;4991;43.566;27.820;2023-05-14T10:36:05;99568.03;;;23.87;51.24
9905;BME280;4991;43.566;27.820;2023-05-14T10:38:33;99567.31;;;23.45;52.52
9905;BME280;4991;43.566;27.820;2023-05-14T10:41:04;99576.19;;;23.77;51.71
9905;BME280;4991;43.566;27.820;2023-05-14T10:43:35;99577.09;;;24.33;51.06
9905;BME280;4991;43.566;27.820;2023-05-14T10:46:01;99571.25;;;24.68;50.50
9905;BME280;4991;43.566;27.820;2023-05-14T10:48:28;99565.97;;;24.33;49.99
9905;BME280;4991;43.566;27.820;2023-05-14T10:50:55;99560.31;;;23.77;50.41
9905;BME280;4991;43.566;27.820;2023-05-14T10:53:41;99572.38;;;23.62;51.17
9905;BME280;4991;43.566;27.820;2023-05-14T10:56:09;99570.47;;;24.15;50.84
9905;BME280;4991;43.566;27.820;2023-05-14T10:58:42;99581.69;;;22.90;51.75
9905;BME280;4991;43.566;27.820;2023-05-14T11:01:10;99591.81;;;22.10;53.19
9905;BME280;4991;43.566;27.820;2023-05-14T11:03:41;99598.88;;;22.57;53.43
9905;BME280;4991;43.566;27.820;2023-05-14T11:06:08;99593.28;;;23.53;52.80
9905;BME280;4991;43.566;27.820;2023-05-14T11:08:36;99591.31;;;23.15;54.01
9905;BME280;4991;43.566;27.820;2023-05-14T11:11:02;99589.56;;;23.26;52.13
9905;BME280;4991;43.566;27.820;2023-05-14T11:13:28;99589.47;;;23.42;52.33
9905;BME280;4991;43.566;27.820;2023-05-14T11:15:55;99583.13;;;23.22;52.84
9905;BME280;4991;43.566;27.820;2023-05-14T11:18:29;99572.78;;;23.00;52.71
9905;BME280;4991;43.566;27.820;2023-05-14T11:21:02;99577.38;;;22.73;53.61
9905;BME280;4991;43.566;27.820;2023-05-14T11:23:28;99562.56;;;22.31;55.83
9905;BME280;4991;43.566;27.820;2023-05-14T11:25:55;99573.00;;;22.72;54.72
9905;BME280;4991;43.566;27.820;2023-05-14T11:28:22;99568.38;;;21.60;56.42
9905;BME280;4991;43.566;27.820;2023-05-14T11:30:49;99574.56;;;21.85;56.43
9905;BME280;4991;43.566;27.820;2023-05-14T11:33:16;99561.03;;;21.99;57.58
9905;BME280;4991;43.566;27.820;2023-05-14T11:35:42;99557.50;;;22.18;57.71
9905;BME280;4991;43.566;27.820;2023-05-14T11:38:14;99563.16;;;22.06;58.39
9905;BME280;4991;43.566;27.820;2023-05-14T11:40:40;99553.00;;;22.29;57.02
9905;BME280;4991;43.566;27.820;2023-05-14T11:43:06;99541.53;;;21.64;57.50
9905;BME280;4991;43.566;27.820;2023-05-14T11:45:32;99533.47;;;21.13;59.07
9905;BME280;4991;43.566;27.820;2023-05-14T11:47:58;99524.16;;;20.78;61.72
9905;BME280;4991;43.566;27.820;2023-05-14T11:50:23;99518.72;;;20.66;62.52
9905;BME280;4991;43.566;27.820;2023-05-14T11:52:49;99512.56;;;21.00;62.53
9905;BME280;4991;43.566;27.820;2023-05-14T11:55:15;99517.66;;;21.13;62.33
9905;BME280;4991;43.566;27.820;2023-05-14T11:57:41;99507.84;;;20.73;63.64
9905;BME280;4991;43.566;27.820;2023-05-14T12:00:09;99495.66;;;21.05;64.35
9905;BME280;4991;43.566;27.820;2023-05-14T12:02:37;99487.72;;;21.03;65.29
9905;BME280;4991;43.566;27.820;2023-05-14T12:05:04;99488.38;;;20.85;66.49
9905;BME280;4991;43.566;27.820;2023-05-14T12:07:31;99484.50;;;21.63;64.07
9905;BME280;4991;43.566;27.820;2023-05-14T12:10:00;99473.97;;;22.42;62.36
9905;BME280;4991;43.566;27.820;2023-05-14T12:12:26;99473.03;;;22.34;62.13
9905;BME280;4991;43.566;27.820;2023-05-14T12:14:52;99476.38;;;23.46;59.66
9905;BME280;4991;43.566;27.820;2023-05-14T12:17:19;99471.97;;;23.97;57.68
9905;BME280;4991;43.566;27.820;2023-05-14T12:19:48;99471.41;;;24.40;54.96
9905;BME280;4991;43.566;27.820;2023-05-14T12:22:16;99471.31;;;23.77;58.19
9905;BME280;4991;43.566;27.820;2023-05-14T12:24:43;99467.66;;;23.25;58.15
9905;BME280;4991;43.566;27.820;2023-05-14T12:27:21;99459.66;;;22.21;58.75
9905;BME280;4991;43.566;27.820;2023-05-14T12:29:50;99457.72;;;21.87;58.16
9905;BME280;4991;43.566;27.820;2023-05-14T12:32:24;99462.97;;;21.26;60.48
9905;BME280;4991;43.566;27.820;2023-05-14T12:34:50;99466.94;;;21.75;58.95
9905;BME280;4991;43.566;27.820;2023-05-14T12:37:16;99476.97;;;21.80;58.47
9905;BME280;4991;43.566;27.820;2023-05-14T12:39:43;99479.91;;;21.87;60.03
9905;BME280;4991;43.566;27.820;2023-05-14T12:42:08;99476.22;;;21.98;58.72
9905;BME280;4991;43.566;27.820;2023-05-14T12:44:34;99479.13;;;21.55;57.69
9905;BME280;4991;43.566;27.820;2023-05-14T12:46:59;99477.13;;;21.71;59.50
9905;BME280;4991;43.566;27.820;2023-05-14T12:49:25;99475.66;;;22.27;59.70
9905;BME280;4991;43.566;27.820;2023-05-14T12:51:51;99479.19;;;22.81;58.70
9905;BME280;4991;43.566;27.820;2023-05-14T12:54:16;99470.00;;;23.45;57.62
9905;BME280;4991;43.566;27.820;2023-05-14T12:56:42;99465.00;;;23.54;54.51
9905;BME280;4991;43.566;27.820;2023-05-14T12:59:07;99449.97;;;24.14;53.52
9905;BME280;4991;43.566;27.820;2023-05-14T13:01:33;99458.38;;;24.18;54.18
9905;BME280;4991;43.566;27.820;2023-05-14T13:03:59;99463.25;;;24.24;53.53
9905;BME280;4991;43.566;27.820;2023-05-14T13:06:25;99467.06;;;24.76;52.81
9905;BME280;4991;43.566;27.820;2023-05-14T13:08:50;99483.09;;;25.26;51.52
9905;BME280;4991;43.566;27.820;2023-05-14T13:11:16;99483.44;;;27.36;51.52
9905;BME280;4991;43.566;27.820;2023-05-14T13:13:42;99474.22;;;28.03;48.28
9905;BME280;4991;43.566;27.820;2023-05-14T13:16:08;99483.06;;;27.31;47.15